createdAt,value
2017-03-07T00:00:04.977Z,0
2017-03-07T00:01:04.612Z,0
2017-03-07T00:02:05.440Z,0
2017-03-07T00:03:05.068Z,0
2017-03-07T00:04:05.489Z,0
2017-03-07T00:05:04.335Z,0
2017-03-07T00:06:04.381Z,0
2017-03-07T00:07:05.185Z,0
2017-03-07T00:08:04.816Z,0
2017-03-07T00:09:04.515Z,0
2017-03-07T00:10:05.315Z,0
2017-03-07T00:11:05.725Z,0
2017-03-07T00:12:05.389Z,0
2017-03-07T00:13:04.999Z,0
2017-03-07T00:14:05.032Z,0
2017-03-07T00:15:05.069Z,0
2017-03-07T00:16:05.498Z,0
2017-03-07T00:17:05.127Z,0
2017-03-07T00:18:05.579Z,0
2017-03-07T00:19:05.593Z,0
2017-03-07T00:20:04.857Z,0
2017-03-07T00:21:05.658Z,0
2017-03-07T00:22:05.703Z,0
2017-03-07T00:23:04.964Z,0
2017-03-07T00:24:05.766Z,0
2017-03-07T00:25:05.792Z,0
2017-03-07T00:26:05.440Z,0
2017-03-07T00:27:05.079Z,0
2017-03-07T00:28:06.292Z,0
2017-03-07T00:29:05.545Z,0
2017-03-07T00:30:05.186Z,0
2017-03-07T00:31:06.419Z,0
2017-03-07T00:32:06.032Z,0
2017-03-07T00:33:05.686Z,0
2017-03-07T00:34:06.099Z,0
2017-03-07T00:35:06.158Z,0
2017-03-07T00:36:05.803Z,0
2017-03-07T00:37:05.821Z,0
2017-03-07T00:38:06.247Z,0
2017-03-07T00:39:05.861Z,0
2017-03-07T00:40:06.746Z,0
2017-03-07T00:41:05.950Z,0
2017-03-07T00:42:05.595Z,0
2017-03-07T00:43:06.404Z,0
2017-03-07T00:44:06.048Z,0
2017-03-07T00:45:05.729Z,0
2017-03-07T00:46:06.510Z,0
2017-03-07T00:47:06.154Z,0
2017-03-07T00:48:05.779Z,0
2017-03-07T00:49:05.837Z,0
2017-03-07T00:50:06.658Z,0
2017-03-07T00:51:05.890Z,0
2017-03-07T00:52:06.326Z,0
2017-03-07T00:53:06.726Z,0
2017-03-07T00:54:06.762Z,0
2017-03-07T00:55:06.820Z,0
2017-03-07T00:56:07.245Z,0
2017-03-07T00:57:07.270Z,0
2017-03-07T00:58:07.304Z,0
2017-03-07T00:59:06.949Z,0
2017-03-07T01:00:07.021Z,0
2017-03-07T01:01:06.614Z,0
2017-03-07T01:02:07.049Z,0
2017-03-07T01:03:06.300Z,0
2017-03-07T01:04:06.730Z,0
2017-03-07T01:05:07.128Z,0
2017-03-07T01:06:06.784Z,0
2017-03-07T01:07:06.817Z,0
2017-03-07T01:08:07.252Z,0
2017-03-07T01:09:06.914Z,0
2017-03-07T01:10:07.319Z,0
2017-03-07T01:11:06.959Z,0
2017-03-07T01:12:07.368Z,0
2017-03-07T01:13:07.052Z,0
2017-03-07T01:14:07.458Z,0
2017-03-07T01:15:07.491Z,0
2017-03-07T01:16:07.131Z,0
2017-03-07T01:17:07.954Z,0
2017-03-07T01:18:07.602Z,0
2017-03-07T01:19:07.308Z,0
2017-03-07T01:20:07.274Z,0
2017-03-07T01:21:07.310Z,0
2017-03-07T01:22:06.955Z,0
2017-03-07T01:23:08.193Z,0
2017-03-07T01:24:07.785Z,0
2017-03-07T01:25:07.048Z,0
2017-03-07T01:26:07.487Z,0
2017-03-07T01:27:07.126Z,0
2017-03-07T01:28:07.541Z,0
2017-03-07T01:29:07.565Z,0
2017-03-07T01:30:08.015Z,0
2017-03-07T01:31:08.020Z,0
2017-03-07T01:32:07.694Z,0
2017-03-07T01:33:07.691Z,0
2017-03-07T01:34:08.528Z,0
2017-03-07T01:35:08.162Z,0
2017-03-07T01:36:07.787Z,0
2017-03-07T01:37:07.440Z,0
2017-03-07T01:38:07.876Z,0
2017-03-07T01:39:08.298Z,0
2017-03-07T01:40:08.356Z,0
2017-03-07T01:41:07.577Z,0
2017-03-07T01:42:07.996Z,0
2017-03-07T01:43:08.035Z,0
2017-03-07T01:44:08.071Z,0
2017-03-07T01:45:08.919Z,0
2017-03-07T01:46:08.526Z,0
2017-03-07T01:47:08.586Z,0
2017-03-07T01:48:08.606Z,0
2017-03-07T01:49:08.241Z,0
2017-03-07T01:50:08.285Z,0
2017-03-07T01:51:08.309Z,0
2017-03-07T01:52:08.346Z,0
2017-03-07T01:53:08.389Z,0
2017-03-07T01:54:08.802Z,0
2017-03-07T01:55:08.834Z,0
2017-03-07T01:56:09.098Z,0
2017-03-07T01:57:08.525Z,0
2017-03-07T01:58:08.942Z,0
2017-03-07T01:59:08.582Z,0
2017-03-07T02:00:08.620Z,0
2017-03-07T02:01:08.261Z,0
2017-03-07T02:02:09.083Z,0
2017-03-07T02:03:08.719Z,0
2017-03-07T02:04:09.550Z,0
2017-03-07T02:05:08.404Z,0
2017-03-07T02:06:09.242Z,0
2017-03-07T02:07:09.652Z,0
2017-03-07T02:08:08.876Z,0
2017-03-07T02:09:09.165Z,0
2017-03-07T02:10:09.368Z,0
2017-03-07T02:11:08.978Z,0
2017-03-07T02:12:08.647Z,0
2017-03-07T02:13:09.061Z,0
2017-03-07T02:14:09.322Z,0
2017-03-07T02:15:09.520Z,0
2017-03-07T02:16:09.148Z,0
2017-03-07T02:17:09.601Z,0
2017-03-07T02:18:09.222Z,0
2017-03-07T02:19:10.091Z,0
2017-03-07T02:20:10.070Z,0
2017-03-07T02:21:08.933Z,0
2017-03-07T02:22:09.760Z,0
2017-03-07T02:23:10.163Z,0
2017-03-07T02:24:10.260Z,0
2017-03-07T02:25:09.480Z,0
2017-03-07T02:26:09.524Z,0
2017-03-07T02:37:29.886Z,0
2017-03-07T02:38:19.261Z,0
2017-03-07T02:39:19.316Z,0
2017-03-07T02:40:20.122Z,0
2017-03-07T02:41:19.599Z,0
2017-03-07T02:42:19.394Z,0
2017-03-07T02:43:19.437Z,0
2017-03-07T02:44:19.857Z,0
2017-03-07T02:45:19.888Z,0
2017-03-07T02:46:19.927Z,0
2017-03-07T02:47:20.360Z,0
2017-03-07T02:48:19.611Z,0
2017-03-07T02:49:20.440Z,0
2017-03-07T02:50:20.852Z,0
2017-03-07T02:51:20.093Z,0
2017-03-07T02:52:19.733Z,0
2017-03-07T02:53:20.955Z,0
2017-03-07T02:54:20.603Z,0
2017-03-07T02:55:20.228Z,0
2017-03-07T02:56:20.281Z,0
2017-03-07T02:57:20.707Z,0
2017-03-07T02:58:20.337Z,0
2017-03-07T02:59:20.370Z,0
2017-03-07T03:00:20.410Z,0
2017-03-07T03:01:20.829Z,0
2017-03-07T03:02:20.100Z,0
2017-03-07T03:03:20.508Z,0
2017-03-07T03:04:20.134Z,0
2017-03-07T03:05:20.185Z,0
2017-03-07T03:06:20.213Z,0
2017-03-07T03:07:20.635Z,0
2017-03-07T03:08:20.287Z,0
2017-03-07T03:09:20.313Z,0
2017-03-07T03:10:20.371Z,0
2017-03-07T03:11:21.338Z,0
2017-03-07T03:12:20.811Z,0
2017-03-07T03:13:21.241Z,0
2017-03-07T03:14:21.263Z,0
2017-03-07T03:15:20.912Z,0
2017-03-07T03:16:21.330Z,0
2017-03-07T03:17:21.361Z,0
2017-03-07T03:18:21.808Z,0
2017-03-07T03:19:21.446Z,0
2017-03-07T03:20:21.469Z,0
2017-03-07T03:21:21.119Z,0
2017-03-07T03:22:21.533Z,0
2017-03-07T03:23:20.791Z,0
2017-03-07T03:24:21.215Z,0
2017-03-07T03:25:20.842Z,0
2017-03-07T03:26:21.300Z,0
2017-03-07T03:27:21.324Z,0
2017-03-07T03:28:20.961Z,0
2017-03-07T03:29:21.397Z,0
2017-03-07T03:30:21.026Z,0
2017-03-07T03:31:21.460Z,0
2017-03-07T03:32:21.867Z,0
2017-03-07T03:33:21.513Z,0
2017-03-07T03:34:21.542Z,0
2017-03-07T03:35:21.580Z,0
2017-03-07T03:36:21.610Z,0
2017-03-07T03:37:21.252Z,0
2017-03-07T03:38:22.085Z,0
2017-03-07T03:39:22.124Z,0
2017-03-07T03:40:21.753Z,0
2017-03-07T03:41:22.164Z,0
2017-03-07T03:42:21.829Z,0
2017-03-07T03:43:22.649Z,0
2017-03-07T03:44:21.499Z,0
2017-03-07T03:45:21.530Z,0
2017-03-07T03:46:21.960Z,0
2017-03-07T03:47:21.585Z,0
2017-03-07T03:48:21.629Z,0
2017-03-07T03:49:21.670Z,0
2017-03-07T03:50:22.481Z,0
2017-03-07T03:51:22.519Z,0
2017-03-07T03:52:21.783Z,0
2017-03-07T03:53:22.578Z,0
2017-03-07T03:54:22.643Z,0
2017-03-07T03:55:22.637Z,0
2017-03-07T03:56:22.289Z,0
2017-03-07T03:57:21.934Z,0
2017-03-07T03:58:22.372Z,0
2017-03-07T03:59:22.407Z,0
2017-03-07T04:00:22.825Z,0
2017-03-07T04:01:22.457Z,0
2017-03-07T04:02:22.502Z,0
2017-03-07T04:03:22.560Z,0
2017-03-07T04:04:22.557Z,0
2017-03-07T04:05:22.985Z,0
2017-03-07T04:06:22.629Z,0
2017-03-07T04:07:23.456Z,0
2017-03-07T04:08:22.294Z,0
2017-03-07T04:09:22.765Z,0
2017-03-07T04:10:23.146Z,0
2017-03-07T04:11:22.796Z,0
2017-03-07T04:12:22.844Z,0
2017-03-07T04:13:22.892Z,0
2017-03-07T04:14:22.887Z,0
2017-03-07T04:15:22.933Z,0
2017-03-07T04:16:22.961Z,0
2017-03-07T04:17:23.000Z,0
2017-03-07T04:18:23.048Z,0
2017-03-07T04:19:23.444Z,0
2017-03-07T04:20:23.486Z,0
2017-03-07T04:21:23.124Z,0
2017-03-07T04:22:23.176Z,0
2017-03-07T04:23:22.805Z,0
2017-03-07T04:24:23.643Z,0
2017-03-07T04:25:23.672Z,0
2017-03-07T04:26:22.910Z,0
2017-03-07T04:27:23.731Z,0
2017-03-07T04:28:22.991Z,0
2017-03-07T04:29:23.816Z,0
2017-03-07T04:30:23.429Z,0
2017-03-07T04:31:23.078Z,0
2017-03-07T04:32:23.539Z,0
2017-03-07T04:33:23.920Z,0
2017-03-07T04:34:23.961Z,0
2017-03-07T04:35:23.994Z,0
2017-03-07T04:36:23.648Z,0
2017-03-07T04:37:23.673Z,0
2017-03-07T04:38:23.694Z,0
2017-03-07T04:39:23.358Z,0
2017-03-07T04:40:23.775Z,0
2017-03-07T04:41:23.803Z,0
2017-03-07T04:42:24.249Z,0
2017-03-07T04:43:24.270Z,0
2017-03-07T04:44:23.896Z,0
2017-03-07T04:45:23.551Z,0
2017-03-07T04:46:23.584Z,0
2017-03-07T04:47:24.399Z,0
2017-03-07T04:48:24.038Z,0
2017-03-07T04:49:23.677Z,0
2017-03-07T04:50:24.115Z,0
2017-03-07T04:51:24.157Z,0
2017-03-07T04:52:24.569Z,0
2017-03-07T04:53:24.604Z,0
2017-03-07T04:54:24.243Z,0
2017-03-07T04:55:23.878Z,0
2017-03-07T04:56:24.718Z,0
2017-03-07T04:57:24.735Z,0
2017-03-07T04:58:24.008Z,0
2017-03-07T04:59:24.812Z,0
2017-03-07T05:00:24.442Z,0
2017-03-07T05:01:24.093Z,0
2017-03-07T05:02:24.512Z,0
2017-03-07T05:03:24.927Z,0
2017-03-07T05:04:24.973Z,0
2017-03-07T05:05:24.236Z,0
2017-03-07T05:06:25.036Z,0
2017-03-07T05:07:24.678Z,0
2017-03-07T05:08:25.107Z,0
2017-03-07T05:09:24.781Z,0
2017-03-07T05:10:24.396Z,0
2017-03-07T05:11:25.220Z,0
2017-03-07T05:12:24.473Z,0
2017-03-07T05:13:25.263Z,0
2017-03-07T05:14:25.719Z,0
2017-03-07T05:15:25.335Z,0
2017-03-07T05:16:24.625Z,0
2017-03-07T05:17:25.399Z,0
2017-03-07T05:18:24.667Z,0
2017-03-07T05:19:25.081Z,0
2017-03-07T05:20:25.130Z,0
2017-03-07T05:21:25.946Z,0
2017-03-07T05:22:25.571Z,0
2017-03-07T05:23:25.222Z,0
2017-03-07T05:24:25.242Z,0
2017-03-07T05:25:26.089Z,4
2017-03-07T05:26:25.338Z,4
2017-03-07T05:27:25.372Z,4
2017-03-07T05:28:25.391Z,4
2017-03-07T05:29:25.416Z,4
2017-03-07T05:30:25.447Z,0
2017-03-07T05:31:25.092Z,4
2017-03-07T05:32:25.898Z,4
2017-03-07T05:33:25.970Z,4
2017-03-07T05:34:25.987Z,8
2017-03-07T05:35:26.045Z,8
2017-03-07T05:36:25.644Z,8
2017-03-07T05:37:25.320Z,12
2017-03-07T05:38:25.724Z,8
2017-03-07T05:39:26.164Z,12
2017-03-07T05:40:25.779Z,16
2017-03-07T05:41:25.819Z,16
2017-03-07T05:42:25.856Z,20
2017-03-07T05:43:26.270Z,24
2017-03-07T05:44:25.516Z,28
2017-03-07T05:45:25.547Z,32
2017-03-07T05:46:25.598Z,36
2017-03-07T05:47:26.409Z,36
2017-03-07T05:48:26.048Z,48
2017-03-07T05:49:26.098Z,52
2017-03-07T05:50:26.516Z,60
2017-03-07T05:51:26.938Z,68
2017-03-07T05:52:26.178Z,76
2017-03-07T05:53:26.221Z,84
2017-03-07T05:54:26.253Z,88
2017-03-07T05:55:26.286Z,96
2017-03-07T05:56:26.320Z,96
2017-03-07T05:57:27.166Z,96
2017-03-07T05:58:27.197Z,96
2017-03-07T05:59:26.456Z,100
2017-03-07T06:00:26.871Z,112
2017-03-07T06:01:26.499Z,124
2017-03-07T06:02:26.518Z,132
2017-03-07T06:03:26.566Z,128
2017-03-07T06:04:26.194Z,124
2017-03-07T06:05:26.640Z,128
2017-03-07T06:06:26.678Z,124
2017-03-07T06:07:26.303Z,136
2017-03-07T06:08:26.332Z,136
2017-03-07T06:09:27.146Z,140
2017-03-07T06:10:26.803Z,140
2017-03-07T06:11:27.234Z,144
2017-03-07T06:12:26.856Z,152
2017-03-07T06:13:27.310Z,132
2017-03-07T06:14:27.332Z,128
2017-03-07T06:15:27.737Z,132
2017-03-07T06:16:26.983Z,132
2017-03-07T06:17:27.050Z,132
2017-03-07T06:18:26.665Z,132
2017-03-07T06:19:27.889Z,132
2017-03-07T06:20:26.737Z,136
2017-03-07T06:21:27.544Z,140
2017-03-07T06:22:26.796Z,124
2017-03-07T06:23:27.603Z,128
2017-03-07T06:24:29.854Z,140
2017-03-07T06:25:27.299Z,160
2017-03-07T06:26:27.339Z,184
2017-03-07T06:27:27.346Z,192
2017-03-07T06:28:28.181Z,204
2017-03-07T06:29:28.211Z,200
2017-03-07T06:30:27.457Z,228
2017-03-07T06:31:27.905Z,244
2017-03-07T06:32:27.531Z,240
2017-03-07T06:33:27.561Z,240
2017-03-07T06:34:27.593Z,264
2017-03-07T06:35:27.628Z,272
2017-03-07T06:36:28.068Z,284
2017-03-07T06:37:28.132Z,300
2017-03-07T06:38:28.141Z,324
2017-03-07T06:39:28.157Z,344
2017-03-07T06:40:28.203Z,340
2017-03-07T06:41:27.841Z,336
2017-03-07T06:42:27.466Z,356
2017-03-07T06:43:27.897Z,356
2017-03-07T06:44:27.926Z,364
2017-03-07T06:45:28.343Z,332
2017-03-07T06:46:28.018Z,388
2017-03-07T06:47:28.029Z,440
2017-03-07T06:48:28.058Z,312
2017-03-07T06:49:28.493Z,332
2017-03-07T06:50:28.120Z,328
2017-03-07T06:51:28.162Z,360
2017-03-07T06:52:27.792Z,440
2017-03-07T06:53:27.834Z,448
2017-03-07T06:54:28.286Z,456
2017-03-07T06:55:28.711Z,496
2017-03-07T06:56:29.108Z,492
2017-03-07T06:57:28.737Z,388
2017-03-07T06:58:28.001Z,516
2017-03-07T06:59:28.047Z,620
2017-03-07T07:00:28.063Z,604
2017-03-07T07:01:28.123Z,664
2017-03-07T07:02:28.512Z,568
2017-03-07T07:03:28.152Z,624
2017-03-07T07:04:28.589Z,560
2017-03-07T07:05:29.010Z,532
2017-03-07T07:06:28.274Z,624
2017-03-07T07:07:29.083Z,820
2017-03-07T07:08:29.150Z,852
2017-03-07T07:09:29.862Z,880
2017-03-07T07:10:28.412Z,932
2017-03-07T07:11:28.534Z,908
2017-03-07T07:12:29.256Z,880
2017-03-07T07:13:29.279Z,912
2017-03-07T07:14:29.320Z,936
2017-03-07T07:15:28.652Z,908
2017-03-07T07:16:28.979Z,944
2017-03-07T07:17:29.141Z,1060
2017-03-07T07:18:29.348Z,1164
2017-03-07T07:19:29.371Z,1236
2017-03-07T07:20:28.998Z,1308
2017-03-07T07:21:29.576Z,1416
2017-03-07T07:22:29.148Z,1528
2017-03-07T07:23:28.952Z,1624
2017-03-07T07:24:29.301Z,1564
2017-03-07T07:25:29.698Z,1468
2017-03-07T07:26:29.355Z,1348
2017-03-07T07:27:29.772Z,1352
2017-03-07T07:28:31.317Z,1320
2017-03-07T07:29:29.851Z,1336
2017-03-07T07:30:29.845Z,1216
2017-03-07T07:31:29.499Z,1160
2017-03-07T07:32:29.131Z,928
2017-03-07T07:33:29.978Z,868
2017-03-07T07:34:29.214Z,740
2017-03-07T07:35:29.635Z,796
2017-03-07T07:36:29.673Z,952
2017-03-07T07:37:29.706Z,1068
2017-03-07T07:38:30.549Z,1112
2017-03-07T07:39:29.752Z,1096
2017-03-07T07:40:30.247Z,1144
2017-03-07T07:41:30.286Z,1088
2017-03-07T07:42:29.453Z,1100
2017-03-07T07:43:29.923Z,1120
2017-03-07T07:44:29.908Z,1232
2017-03-07T07:45:29.622Z,1256
2017-03-07T07:46:30.086Z,1268
2017-03-07T07:47:30.112Z,1264
2017-03-07T07:48:29.678Z,1204
2017-03-07T07:49:30.074Z,1368
2017-03-07T07:50:30.505Z,1628
2017-03-07T07:51:29.775Z,1844
2017-03-07T07:52:30.359Z,1588
2017-03-07T07:53:30.214Z,1688
2017-03-07T07:54:30.252Z,1808
2017-03-07T07:55:30.707Z,1620
2017-03-07T07:56:30.313Z,1596
2017-03-07T07:57:30.768Z,1740
2017-03-07T07:58:30.421Z,1980
2017-03-07T07:59:30.811Z,1924
2017-03-07T08:00:30.467Z,1900
2017-03-07T08:01:30.131Z,1804
2017-03-07T08:02:30.805Z,1832
2017-03-07T08:03:30.151Z,1752
2017-03-07T08:04:30.976Z,1624
2017-03-07T08:05:31.022Z,1520
2017-03-07T08:06:30.376Z,1676
2017-03-07T08:07:30.708Z,1800
2017-03-07T08:08:30.320Z,1692
2017-03-07T08:09:30.352Z,1676
2017-03-07T08:10:30.792Z,1608
2017-03-07T08:11:31.221Z,1772
2017-03-07T08:12:30.470Z,1824
2017-03-07T08:13:31.290Z,1752
2017-03-07T08:14:30.918Z,1728
2017-03-07T08:15:31.033Z,1584
2017-03-07T08:16:30.608Z,1512
2017-03-07T08:17:31.012Z,1744
2017-03-07T08:18:31.105Z,1944
2017-03-07T08:19:31.502Z,1980
2017-03-07T08:20:31.500Z,2068
2017-03-07T08:21:30.846Z,1976
2017-03-07T08:22:31.206Z,1808
2017-03-07T08:23:31.213Z,1876
2017-03-07T08:24:30.846Z,2068
2017-03-07T08:25:31.702Z,2216
2017-03-07T08:26:31.295Z,2580
2017-03-07T08:27:31.736Z,2672
2017-03-07T08:28:32.187Z,2304
2017-03-07T08:29:31.475Z,1796
2017-03-07T08:30:31.861Z,1684
2017-03-07T08:31:31.895Z,1536
2017-03-07T08:32:32.340Z,1724
2017-03-07T08:33:31.530Z,1992
2017-03-07T08:34:31.218Z,1960
2017-03-07T08:35:31.618Z,2112
2017-03-07T08:36:31.277Z,2448
2017-03-07T08:37:32.062Z,2644
2017-03-07T08:38:32.118Z,2296
2017-03-07T08:39:31.795Z,2148
2017-03-07T08:40:32.154Z,2376
2017-03-07T08:41:32.208Z,2424
2017-03-07T08:42:31.439Z,2656
2017-03-07T08:43:31.902Z,2692
2017-03-07T08:44:32.298Z,2772
2017-03-07T08:45:31.938Z,2952
2017-03-07T08:46:31.974Z,3284
2017-03-07T08:47:32.461Z,4072
2017-03-07T08:48:32.079Z,4744
2017-03-07T08:49:31.710Z,5284
2017-03-07T08:50:32.110Z,5180
2017-03-07T08:51:32.551Z,4868
2017-03-07T08:52:31.863Z,4652
2017-03-07T08:53:32.263Z,4924
2017-03-07T08:54:32.642Z,5956
2017-03-07T08:55:32.680Z,6220
2017-03-07T08:56:31.940Z,5432
2017-03-07T08:57:32.346Z,5700
2017-03-07T08:58:31.985Z,5664
2017-03-07T08:59:32.815Z,8656
2017-03-07T09:00:32.841Z,8196
2017-03-07T09:01:32.908Z,10948
2017-03-07T09:02:34.866Z,11692
2017-03-07T09:03:32.981Z,10728
2017-03-07T09:04:33.083Z,9012
2017-03-07T09:05:32.619Z,7876
2017-03-07T09:06:33.048Z,7408
2017-03-07T09:07:33.140Z,6596
2017-03-07T09:08:33.001Z,6744
2017-03-07T09:09:32.756Z,6164
2017-03-07T09:10:33.575Z,5656
2017-03-07T09:11:32.516Z,6152
2017-03-07T09:12:32.458Z,5992
2017-03-07T09:13:32.890Z,6152
2017-03-07T09:14:32.534Z,5608
2017-03-07T09:15:32.950Z,6228
2017-03-07T09:16:33.487Z,6000
2017-03-07T09:17:33.489Z,6256
2017-03-07T09:18:33.074Z,6164
2017-03-07T09:19:33.327Z,6600
2017-03-07T09:20:33.406Z,7120
2017-03-07T09:21:33.197Z,7104
2017-03-07T09:22:33.252Z,7396
2017-03-07T09:23:33.261Z,7308
2017-03-07T09:24:33.211Z,7144
2017-03-07T09:25:38.361Z,6388
2017-03-07T09:26:36.606Z,5352
2017-03-07T09:27:33.361Z,5632
2017-03-07T09:28:33.406Z,5420
2017-03-07T09:29:33.944Z,5384
2017-03-07T09:30:33.064Z,4840
2017-03-07T09:31:34.536Z,4800
2017-03-07T09:32:33.924Z,4644
2017-03-07T09:33:34.091Z,4404
2017-03-07T09:34:33.211Z,4060
2017-03-07T09:35:33.826Z,4112
2017-03-07T09:36:33.658Z,3720
2017-03-07T09:37:34.113Z,3000
2017-03-07T09:38:33.766Z,2716
2017-03-07T09:39:34.154Z,2840
2017-03-07T09:40:34.569Z,3036
2017-03-07T09:41:34.181Z,3248
2017-03-07T09:42:36.222Z,3636
2017-03-07T09:43:33.620Z,3572
2017-03-07T09:44:33.964Z,3724
2017-03-07T09:45:33.830Z,4184
2017-03-07T09:46:34.415Z,4124
2017-03-07T09:47:34.550Z,4604
2017-03-07T09:48:33.765Z,5096
2017-03-07T09:49:33.707Z,5040
2017-03-07T09:50:34.025Z,4940
2017-03-07T09:51:33.927Z,4916
2017-03-07T09:52:34.609Z,4840
2017-03-07T09:53:33.834Z,4856
2017-03-07T09:54:34.354Z,4776
2017-03-07T09:55:34.874Z,4488
2017-03-07T09:56:34.485Z,4000
2017-03-07T09:57:35.531Z,4224
2017-03-07T09:58:34.004Z,4192
2017-03-07T09:59:34.444Z,4200
2017-03-07T10:00:34.900Z,4160
2017-03-07T10:01:34.930Z,4128
2017-03-07T10:02:34.815Z,4172
2017-03-07T10:03:34.603Z,4112
2017-03-07T10:04:35.031Z,4464
2017-03-07T10:05:35.084Z,4316
2017-03-07T10:06:35.100Z,4524
2017-03-07T10:07:34.829Z,4792
2017-03-07T10:08:34.369Z,4804
2017-03-07T10:09:34.379Z,4448
2017-03-07T10:10:35.216Z,4888
2017-03-07T10:11:36.057Z,4516
2017-03-07T10:12:35.610Z,4116
2017-03-07T10:13:37.453Z,4008
2017-03-07T10:14:35.358Z,3696
2017-03-07T10:15:34.986Z,3860
2017-03-07T10:16:35.009Z,3460
2017-03-07T10:17:35.175Z,3292
2017-03-07T10:18:36.998Z,3348
2017-03-07T10:19:35.474Z,3484
2017-03-07T10:20:35.929Z,3272
2017-03-07T10:21:35.562Z,3128
2017-03-07T10:22:35.188Z,3688
2017-03-07T10:23:35.317Z,3576
2017-03-07T10:24:35.277Z,3624
2017-03-07T10:25:35.415Z,3364
2017-03-07T10:26:35.988Z,3004
2017-03-07T10:27:34.977Z,3096
2017-03-07T10:28:36.173Z,3376
2017-03-07T10:29:35.421Z,3208
2017-03-07T10:30:35.853Z,2960
2017-03-07T10:31:35.496Z,2976
2017-03-07T10:32:36.319Z,2796
2017-03-07T10:33:35.998Z,2616
2017-03-07T10:34:35.604Z,2544
2017-03-07T10:35:35.354Z,2452
2017-03-07T10:36:35.669Z,2444
2017-03-07T10:37:35.687Z,2244
2017-03-07T10:38:36.498Z,2152
2017-03-07T10:39:36.135Z,2104
2017-03-07T10:40:36.235Z,2008
2017-03-07T10:41:35.856Z,2036
2017-03-07T10:42:36.265Z,1944
2017-03-07T10:43:36.295Z,1852
2017-03-07T10:44:36.697Z,1784
2017-03-07T10:45:36.420Z,1728
2017-03-07T10:46:36.390Z,1732
2017-03-07T10:47:36.433Z,1772
2017-03-07T10:48:36.596Z,1948
2017-03-07T10:49:36.097Z,2144
2017-03-07T10:50:35.818Z,2324
2017-03-07T10:51:36.145Z,2136
2017-03-07T10:52:35.841Z,2444
2017-03-07T10:53:36.241Z,2416
2017-03-07T10:54:36.259Z,2140
2017-03-07T10:55:36.330Z,2500
2017-03-07T10:56:36.767Z,2328
2017-03-07T10:57:36.744Z,3328
2017-03-07T10:58:36.797Z,3284
2017-03-07T10:59:37.200Z,2760
2017-03-07T11:00:36.866Z,2700
2017-03-07T11:01:36.550Z,2848
2017-03-07T11:02:36.912Z,3032
2017-03-07T11:03:36.160Z,2624
2017-03-07T11:04:36.634Z,2716
2017-03-07T11:05:36.372Z,3568
2017-03-07T11:06:37.429Z,3564
2017-03-07T11:07:37.104Z,3764
2017-03-07T11:08:36.775Z,4060
2017-03-07T11:09:36.393Z,3816
2017-03-07T11:10:36.804Z,3436
2017-03-07T11:11:37.228Z,3404
2017-03-07T11:12:36.862Z,2888
2017-03-07T11:13:37.294Z,2500
2017-03-07T11:14:36.925Z,2244
2017-03-07T11:15:37.393Z,2144
2017-03-07T11:16:36.986Z,2188
2017-03-07T11:17:37.023Z,2484
2017-03-07T11:18:37.456Z,2456
2017-03-07T11:19:36.799Z,2504
2017-03-07T11:20:36.736Z,2644
2017-03-07T11:21:37.953Z,2440
2017-03-07T11:22:37.195Z,2592
2017-03-07T11:23:36.838Z,2768
2017-03-07T11:24:37.254Z,2692
2017-03-07T11:25:37.300Z,2784
2017-03-07T11:26:37.337Z,2464
2017-03-07T11:27:37.349Z,2600
2017-03-07T11:28:37.789Z,2752
2017-03-07T11:29:37.819Z,2920
2017-03-07T11:30:37.855Z,2472
2017-03-07T11:31:37.482Z,2236
2017-03-07T11:32:37.597Z,2356
2017-03-07T11:33:37.160Z,2412
2017-03-07T11:34:37.613Z,2224
2017-03-07T11:35:37.616Z,2208
2017-03-07T11:36:38.047Z,2116
2017-03-07T11:37:37.679Z,1996
2017-03-07T11:38:38.149Z,2048
2017-03-07T11:39:38.147Z,2196
2017-03-07T11:40:37.792Z,2256
2017-03-07T11:41:37.838Z,2112
2017-03-07T11:42:38.249Z,2012
2017-03-07T11:43:37.888Z,2280
2017-03-07T11:44:37.934Z,2132
2017-03-07T11:45:37.939Z,2272
2017-03-07T11:46:38.001Z,2060
2017-03-07T11:47:38.798Z,1964
2017-03-07T11:48:38.437Z,1960
2017-03-07T11:49:38.081Z,1960
2017-03-07T11:50:37.758Z,1928
2017-03-07T11:51:37.770Z,1828
2017-03-07T11:52:38.192Z,1784
2017-03-07T11:53:38.627Z,1600
2017-03-07T11:54:38.238Z,1604
2017-03-07T11:55:39.087Z,1500
2017-03-07T11:56:38.312Z,1948
2017-03-07T11:57:39.166Z,2320
2017-03-07T11:58:38.786Z,2924
2017-03-07T11:59:39.231Z,3164
2017-03-07T12:00:38.463Z,3212
2017-03-07T12:01:38.473Z,3296
2017-03-07T12:02:38.510Z,3220
2017-03-07T12:03:38.553Z,3252
2017-03-07T12:04:38.187Z,3020
2017-03-07T12:05:38.616Z,3052
2017-03-07T12:06:39.058Z,3128
2017-03-07T12:07:38.322Z,3256
2017-03-07T12:08:39.330Z,3272
2017-03-07T12:09:38.344Z,3436
2017-03-07T12:10:38.789Z,3332
2017-03-07T12:11:38.807Z,3200
2017-03-07T12:12:38.441Z,3196
2017-03-07T12:13:38.865Z,3068
2017-03-07T12:14:38.531Z,2856
2017-03-07T12:15:39.734Z,2972
2017-03-07T12:16:38.969Z,3008
2017-03-07T12:17:38.610Z,3200
2017-03-07T12:18:39.421Z,3300
2017-03-07T12:19:39.505Z,3456
2017-03-07T12:20:39.102Z,3376
2017-03-07T12:21:39.147Z,3356
2017-03-07T12:22:38.779Z,3452
2017-03-07T12:23:39.682Z,3168
2017-03-07T12:24:38.842Z,2872
2017-03-07T12:25:39.668Z,2848
2017-03-07T12:26:40.094Z,3060
2017-03-07T12:27:39.411Z,3028
2017-03-07T12:28:39.763Z,2500
2017-03-07T12:29:39.806Z,3080
2017-03-07T12:30:39.045Z,2808
2017-03-07T12:31:39.859Z,3164
2017-03-07T12:32:39.893Z,3016
2017-03-07T12:33:39.143Z,4156
2017-03-07T12:34:39.967Z,4212
2017-03-07T12:35:39.614Z,3108
2017-03-07T12:36:39.260Z,2700
2017-03-07T12:37:39.674Z,2228
2017-03-07T12:38:40.112Z,3260
2017-03-07T12:39:39.746Z,3416
2017-03-07T12:40:39.375Z,3412
2017-03-07T12:41:39.554Z,2944
2017-03-07T12:42:39.835Z,3264
2017-03-07T12:43:40.263Z,3072
2017-03-07T12:44:40.297Z,3216
2017-03-07T12:45:39.542Z,3116
2017-03-07T12:46:39.567Z,3284
2017-03-07T12:47:40.399Z,3112
2017-03-07T12:48:40.428Z,3000
2017-03-07T12:49:40.503Z,2664
2017-03-07T12:50:40.089Z,2828
2017-03-07T12:51:39.870Z,2784
2017-03-07T12:52:39.774Z,2784
2017-03-07T12:53:40.604Z,2572
2017-03-07T12:54:39.841Z,2720
2017-03-07T12:55:40.441Z,2612
2017-03-07T12:56:39.921Z,2300
2017-03-07T12:57:40.353Z,2344
2017-03-07T12:58:40.381Z,2380
2017-03-07T12:59:40.401Z,2416
2017-03-07T13:00:40.485Z,2288
2017-03-07T13:01:40.627Z,2176
2017-03-07T13:02:40.609Z,2140
2017-03-07T13:03:40.578Z,2148
2017-03-07T13:04:40.951Z,2608
2017-03-07T13:05:41.012Z,2752
2017-03-07T13:06:40.237Z,2716
2017-03-07T13:07:41.230Z,2672
2017-03-07T13:08:40.752Z,2836
2017-03-07T13:09:40.807Z,2944
2017-03-07T13:11:55.177Z,2932
2017-03-07T13:12:07.313Z,2860
2017-03-07T13:13:07.098Z,2616
2017-03-07T13:14:07.456Z,2352
2017-03-07T13:15:07.682Z,2280
2017-03-07T13:16:06.786Z,2236
2017-03-07T13:17:08.058Z,2112
2017-03-07T13:18:07.269Z,1940
2017-03-07T13:19:07.208Z,1832
2017-03-07T13:20:07.694Z,1812
2017-03-07T13:21:07.233Z,1812
2017-03-07T13:22:07.718Z,1892
2017-03-07T13:23:07.746Z,1864
2017-03-07T13:24:07.329Z,1788
2017-03-07T13:25:07.065Z,1764
2017-03-07T13:26:07.410Z,1616
2017-03-07T13:27:07.083Z,1556
2017-03-07T13:28:07.859Z,1544
2017-03-07T13:29:07.886Z,1500
2017-03-07T13:30:07.629Z,1436
2017-03-07T13:31:07.572Z,1532
2017-03-07T13:32:07.217Z,1492
2017-03-07T13:33:07.654Z,1516
2017-03-07T13:34:08.452Z,1548
2017-03-07T13:35:08.094Z,1532
2017-03-07T13:36:08.142Z,1640
2017-03-07T13:37:08.158Z,1456
2017-03-07T13:38:08.199Z,1368
2017-03-07T13:39:08.283Z,1420
2017-03-07T13:40:08.252Z,1328
2017-03-07T13:41:08.057Z,1300
2017-03-07T13:42:07.974Z,1244
2017-03-07T13:43:08.360Z,1372
2017-03-07T13:44:08.423Z,1404
2017-03-07T13:45:07.843Z,1368
2017-03-07T13:46:08.500Z,1240
2017-03-07T13:47:08.485Z,1216
2017-03-07T13:48:08.149Z,1188
2017-03-07T13:49:08.033Z,1288
2017-03-07T13:50:08.603Z,1328
2017-03-07T13:51:08.639Z,1336
2017-03-07T13:52:08.680Z,1212
2017-03-07T13:53:07.904Z,1500
2017-03-07T13:54:08.736Z,1600
2017-03-07T13:55:08.353Z,2424
2017-03-07T13:56:08.803Z,2208
2017-03-07T13:57:09.232Z,2376
2017-03-07T13:58:09.250Z,2420
2017-03-07T13:59:08.126Z,2716
2017-03-07T14:00:08.540Z,2448
2017-03-07T14:01:08.577Z,2752
2017-03-07T14:02:09.517Z,2908
2017-03-07T14:03:09.364Z,3176
2017-03-07T14:04:09.057Z,2840
2017-03-07T14:05:09.483Z,2272
2017-03-07T14:06:08.725Z,1800